Time;durP1;ratioP1;P1;durP2;ratioP2;P2;SDS_P1;SDS_P2;PMS_P1;PMS_P2;Temp;Humidity;BMP_temperature;BMP_pressure;BME280_temperature;BME280_humidity;BME280_pressure;Samples;Min_cycle;Max_cycle;Signal;HPM_P1;HPM_P2
2022/06/19 00:00:10;;;;;;;15.17;14.07;;;22.60;99.90;;;;;;4974083;28;20452;-71
2022/06/19 00:02:38;;;;;;;20.13;16.23;;;22.50;99.90;;;;;;4974310;28;20573;-70
2022/06/19 00:05:07;;;;;;;16.37;14.57;;;22.50;99.90;;;;;;4974324;28;20448;-71
2022/06/19 00:07:35;;;;;;;16.43;14.90;;;22.50;99.90;;;;;;4974499;28;20488;-71
2022/06/19 00:10:03;;;;;;;18.37;15.43;;;22.30;99.90;;;;;;4974562;28;20507;-70
2022/06/19 00:12:29;;;;;;;23.20;15.90;;;22.20;99.90;;;;;;4974119;28;20456;-71
2022/06/19 00:14:56;;;;;;;17.07;15.47;;;22.00;99.90;;;;;;4974205;28;20455;-71
2022/06/19 00:17:23;;;;;;;16.37;14.87;;;22.00;99.90;;;;;;4974498;28;20462;-71
2022/06/19 00:19:50;;;;;;;17.77;15.93;;;22.00;99.90;;;;;;4974534;28;20796;-71
2022/06/19 00:22:18;;;;;;;17.63;15.73;;;22.00;99.90;;;;;;4974486;28;20452;-71
2022/06/19 00:24:45;;;;;;;15.97;14.37;;;22.00;99.90;;;;;;4974304;28;20805;-71
2022/06/19 00:27:12;;;;;;;15.67;14.23;;;21.90;99.90;;;;;;4974070;28;20495;-71
2022/06/19 00:29:39;;;;;;;16.90;15.27;;;22.00;99.90;;;;;;4973994;28;20447;-71
2022/06/19 00:32:07;;;;;;;16.30;14.63;;;22.00;99.90;;;;;;4973843;28;20540;-71
2022/06/19 00:34:35;;;;;;;15.80;14.33;;;22.10;99.90;;;;;;4973905;28;20466;-71
2022/06/19 00:37:03;;;;;;;22.47;15.17;;;22.00;99.90;;;;;;4974045;28;20538;-71
2022/06/19 00:39:32;;;;;;;16.77;15.17;;;22.00;99.90;;;;;;4974080;28;20872;-70
2022/06/19 00:41:59;;;;;;;14.93;13.57;;;21.90;99.90;;;;;;4973799;28;20452;-70
2022/06/19 00:44:26;;;;;;;16.53;15.07;;;21.90;99.90;;;;;;4973880;28;20563;-70
2022/06/19 03:33:33;;;;;;;16.63;15.23;;;20.60;99.90;;;;;;5032121;23;20493;-74
2022/06/19 03:36:00;;;;;;;15.73;14.53;;;20.70;99.90;;;;;;5010034;28;20457;-74
2022/06/19 03:38:27;;;;;;;16.60;15.40;;;20.80;99.90;;;;;;5009933;28;20457;-75
2022/06/19 03:40:53;;;;;;;16.23;14.63;;;20.80;99.90;;;;;;5010024;28;20511;-74
2022/06/19 03:43:21;;;;;;;16.97;15.27;;;20.70;99.90;;;;;;5010171;28;21137;-74
2022/06/19 03:45:47;;;;;;;18.83;16.00;;;20.90;99.90;;;;;;5010210;28;20457;-74
2022/06/19 03:48:14;;;;;;;16.27;14.87;;;20.90;99.90;;;;;;5013321;28;20489;-74
2022/06/19 03:50:42;;;;;;;17.43;16.20;;;20.90;99.90;;;;;;5013275;28;20940;-75
2022/06/19 03:53:09;;;;;;;16.27;14.87;;;21.00;99.90;;;;;;5013357;28;20454;-74
2022/06/19 03:55:36;;;;;;;16.00;14.90;;;21.00;99.90;;;;;;5013131;28;20465;-74
2022/06/19 03:58:03;;;;;;;16.80;15.10;;;21.00;99.90;;;;;;5013552;28;20480;-74
2022/06/19 04:00:29;;;;;;;16.40;15.37;;;21.10;99.90;;;;;;5013386;28;20463;-74
2022/06/19 04:02:56;;;;;;;17.20;15.67;;;21.20;99.90;;;;;;5011706;28;20838;-74
2022/06/19 04:05:23;;;;;;;16.80;15.30;;;21.20;99.90;;;;;;5011896;28;20454;-74
2022/06/19 04:07:51;;;;;;;15.90;14.67;;;21.30;99.90;;;;;;5011982;28;21219;-74
2022/06/19 04:10:20;;;;;;;17.33;15.70;;;21.30;99.90;;;;;;5009598;28;20450;-74
2022/06/19 04:12:47;;;;;;;17.53;15.07;;;21.40;99.90;;;;;;5012146;28;20442;-74
2022/06/19 04:15:14;;;;;;;15.30;13.80;;;21.40;99.90;;;;;;5012146;28;20445;-74
2022/06/19 04:17:41;;;;;;;17.30;15.73;;;21.40;99.90;;;;;;5012106;28;20450;-75
2022/06/19 04:20:10;;;;;;;16.10;15.00;;;21.50;99.90;;;;;;5011951;28;20956;-75
2022/06/19 04:22:37;;;;;;;17.20;15.60;;;21.60;99.90;;;;;;5009340;28;20488;-75
2022/06/19 04:25:13;;;;;;;15.13;13.87;;;21.70;99.90;;;;;;5011729;28;20461;-75
2022/06/19 04:27:40;;;;;;;15.90;14.70;;;22.00;99.90;;;;;;5009787;28;20477;-74
2022/06/19 04:30:08;;;;;;;15.47;13.93;;;22.20;99.90;;;;;;5011476;28;20861;-75
2022/06/19 04:32:35;;;;;;;16.90;15.17;;;22.50;99.90;;;;;;5008398;28;20528;-76
2022/06/19 04:35:01;;;;;;;17.00;15.07;;;22.70;99.90;;;;;;5011397;28;20476;-76
2022/06/19 04:37:28;;;;;;;15.70;14.80;;;23.00;99.90;;;;;;5011433;28;20446;-76
2022/06/19 04:39:55;;;;;;;15.63;14.10;;;23.00;99.90;;;;;;5011248;28;20458;-76
2022/06/19 04:42:23;;;;;;;17.63;16.03;;;23.10;99.90;;;;;;5011677;28;20516;-76
2022/06/19 04:44:50;;;;;;;16.13;15.00;;;23.40;99.90;;;;;;5011371;28;20442;-74
2022/06/19 04:47:16;;;;;;;16.30;15.00;;;23.80;99.90;;;;;;5008515;28;20478;-75
2022/06/19 04:49:43;;;;;;;17.93;15.60;;;24.00;99.90;;;;;;5011378;28;20446;-74
2022/06/19 04:52:09;;;;;;;18.13;15.80;;;24.30;99.90;;;;;;5010873;28;20460;-74
2022/06/19 04:54:36;;;;;;;16.27;15.07;;;24.30;99.90;;;;;;5008563;28;20450;-75
2022/06/19 04:57:03;;;;;;;16.40;15.00;;;24.30;99.90;;;;;;5011145;28;20446;-75
2022/06/19 04:59:31;;;;;;;15.67;14.47;;;24.50;99.90;;;;;;5011201;28;20513;-74
2022/06/19 05:01:58;;;;;;;16.30;15.30;;;24.70;99.90;;;;;;5008384;28;20450;-73
2022/06/19 05:04:24;;;;;;;17.07;14.93;;;25.00;99.80;;;;;;5010653;28;20456;-74
2022/06/19 05:06:51;;;;;;;17.13;15.40;;;25.00;99.40;;;;;;5011153;28;20477;-74
2022/06/19 05:09:18;;;;;;;16.43;15.13;;;25.20;98.70;;;;;;5011339;28;20446;-74
2022/06/19 05:11:45;;;;;;;15.57;14.23;;;25.50;98.30;;;;;;5010532;28;20954;-74
2022/06/19 05:14:11;;;;;;;16.37;14.90;;;25.60;97.40;;;;;;5011570;28;20450;-75
2022/06/19 05:16:39;;;;;;;19.70;15.53;;;25.60;97.30;;;;;;5011778;28;20542;-76
2022/06/19 05:19:06;;;;;;;18.17;16.40;;;25.70;96.80;;;;;;5012063;28;20442;-75
2022/06/19 05:21:33;;;;;;;17.73;16.20;;;25.70;96.80;;;;;;5012093;28;20458;-75
2022/06/19 05:24:00;;;;;;;17.10;15.70;;;25.70;96.70;;;;;;5011741;28;20449;-75
2022/06/19 05:26:29;;;;;;;15.80;13.60;;;25.70;96.40;;;;;;5011570;28;20459;-74
2022/06/19 05:28:57;;;;;;;16.77;15.00;;;25.80;96.50;;;;;;5012048;28;20450;-75
2022/06/19 05:31:24;;;;;;;16.37;14.83;;;25.90;96.30;;;;;;5011554;28;20528;-75
2022/06/19 05:33:52;;;;;;;16.43;15.20;;;26.00;96.00;;;;;;5011756;28;20453;-75
2022/06/19 05:36:20;;;;;;;16.00;14.53;;;26.20;95.80;;;;;;5011529;28;20453;-75
2022/06/19 05:38:47;;;;;;;16.53;14.87;;;26.40;94.60;;;;;;5011963;28;20446;-75
2022/06/19 05:41:14;;;;;;;17.00;15.30;;;26.60;94.10;;;;;;5011489;28;20465;-75
2022/06/19 05:43:41;;;;;;;15.57;13.93;;;26.80;92.80;;;;;;5011426;28;20445;-75
2022/06/19 05:46:14;;;;;;;17.03;15.43;;;27.00;92.40;;;;;;5011360;28;20469;-76
2022/06/19 05:48:40;;;;;;;16.13;14.43;;;27.30;91.50;;;;;;5011479;28;20529;-76
2022/06/19 05:51:10;;;;;;;16.47;15.37;;;27.60;90.60;;;;;;5011320;28;20520;-75
2022/06/19 05:53:40;;;;;;;16.03;14.70;;;27.60;89.30;;;;;;5011217;28;20508;-75
2022/06/19 05:56:08;;;;;;;17.20;15.70;;;27.70;90.10;;;;;;5011292;28;20449;-74
2022/06/19 05:58:35;;;;;;;18.47;16.87;;;28.00;90.10;;;;;;5011399;28;20454;-75
2022/06/19 06:01:03;;;;;;;19.00;15.93;;;27.90;89.80;;;;;;5009349;28;20556;-74
2022/06/19 06:03:30;;;;;;;14.50;13.50;;;27.90;89.90;;;;;;5008441;28;20994;-74
2022/06/19 06:06:00;;;;;;;14.87;13.33;;;27.80;90.30;;;;;;5010800;28;20807;-74
2022/06/19 06:08:29;;;;;;;17.00;15.23;;;28.00;90.10;;;;;;5011154;28;20898;-75
2022/06/19 06:10:55;;;;;;;17.33;15.73;;;28.20;89.20;;;;;;5010575;28;20457;-75
2022/06/19 06:13:22;;;;;;;17.80;16.27;;;28.10;86.70;;;;;;5011258;28;20801;-75
2022/06/19 06:15:50;;;;;;;17.00;15.17;;;28.00;87.40;;;;;;5011199;28;20460;-75
2022/06/19 06:18:17;;;;;;;17.07;16.00;;;28.40;87.00;;;;;;5011477;28;20450;-76
2022/06/19 06:20:44;;;;;;;17.33;15.80;;;28.70;85.60;;;;;;5011568;28;20456;-75
2022/06/19 06:23:10;;;;;;;14.93;13.37;;;28.90;84.10;;;;;;5011054;28;20711;-75
2022/06/19 06:25:42;;;;;;;15.27;13.93;;;29.00;84.40;;;;;;5010447;28;20913;-75
2022/06/19 06:28:09;;;;;;;16.50;15.10;;;28.90;84.10;;;;;;5010655;28;20488;-75
2022/06/19 06:30:35;;;;;;;17.03;15.77;;;29.10;83.90;;;;;;5010631;28;21068;-76
2022/06/19 06:33:03;;;;;;;16.73;15.53;;;29.20;84.00;;;;;;5010734;28;20478;-76
2022/06/19 06:35:29;;;;;;;17.63;16.10;;;29.50;82.70;;;;;;5010854;28;20520;-77
2022/06/19 06:38:00;;;;;;;17.90;16.50;;;29.50;82.80;;;;;;5010722;28;20496;-78
2022/06/19 06:40:27;;;;;;;17.47;15.57;;;29.30;82.50;;;;;;5011124;28;20516;-77
2022/06/19 06:42:56;;;;;;;18.27;16.60;;;29.00;83.70;;;;;;5010646;28;20935;-79
2022/06/19 06:45:22;;;;;;;16.90;15.50;;;28.90;84.60;;;;;;5010774;28;20461;-77
2022/06/19 06:47:49;;;;;;;15.50;14.17;;;29.10;84.40;;;;;;5010866;28;20489;-79
2022/06/19 06:50:17;;;;;;;17.63;16.00;;;29.20;84.50;;;;;;5010823;28;20449;-79
2022/06/19 06:52:43;;;;;;;16.30;15.07;;;29.20;84.80;;;;;;5010356;28;20853;-78
2022/06/19 06:55:11;;;;;;;17.40;15.90;;;29.50;84.20;;;;;;5010685;28;20453;-73
2022/06/19 06:57:37;;;;;;;17.10;15.77;;;29.80;83.80;;;;;;5010518;28;20445;-72
2022/06/19 07:00:08;;;;;;;21.50;16.57;;;30.40;81.70;;;;;;5010802;28;20457;-74
2022/06/19 07:02:35;;;;;;;17.60;16.07;;;30.50;80.40;;;;;;5010341;28;20476;-73
2022/06/19 07:05:02;;;;;;;16.07;14.60;;;30.80;80.80;;;;;;5010720;28;20450;-79
2022/06/19 07:07:28;;;;;;;16.50;15.30;;;31.10;79.70;;;;;;5010993;28;20481;-79
2022/06/19 07:09:55;;;;;;;17.67;16.23;;;30.80;79.60;;;;;;5010475;28;20453;-79
2022/06/19 07:12:22;;;;;;;15.57;14.43;;;30.30;81.70;;;;;;5010325;28;20442;-79
2022/06/19 07:14:48;;;;;;;16.10;14.80;;;30.00;82.30;;;;;;5010609;28;20951;-79
2022/06/19 07:17:17;;;;;;;16.83;15.47;;;29.30;84.20;;;;;;5010243;28;20457;-78
2022/06/19 07:19:43;;;;;;;16.60;15.10;;;29.00;86.00;;;;;;5011258;28;20807;-79
2022/06/19 07:22:12;;;;;;;16.73;14.93;;;28.80;87.20;;;;;;5013440;28;20458;-78
2022/06/19 07:24:39;;;;;;;15.00;13.90;;;28.70;88.30;;;;;;5014816;28;20492;-77
2022/06/19 07:27:06;;;;;;;16.33;14.53;;;28.70;88.00;;;;;;5014485;28;20875;-77
2022/06/19 07:29:33;;;;;;;16.20;14.70;;;28.70;88.50;;;;;;5014202;28;20493;-76
2022/06/19 07:31:59;;;;;;;16.30;15.23;;;28.60;89.20;;;;;;5013968;28;20481;-77
2022/06/19 07:34:28;;;;;;;17.33;15.67;;;28.70;90.00;;;;;;5014291;28;20454;-77
2022/06/19 07:36:54;;;;;;;16.70;15.20;;;28.90;89.00;;;;;;5014149;28;20465;-78
2022/06/19 07:39:21;;;;;;;16.83;15.33;;;29.10;88.00;;;;;;5014553;28;20449;-76
2022/06/19 07:41:48;;;;;;;19.87;15.63;;;29.40;87.40;;;;;;5014185;28;20531;-77
2022/06/19 07:44:14;;;;;;;17.57;16.13;;;30.30;84.20;;;;;;5014176;28;20461;-78
2022/06/19 07:52:07;;;;;;;17.60;16.13;;;32.40;76.40;;;;;;5014064;28;20484;-79
2022/06/19 07:54:39;;;;;;;17.13;15.83;;;33.10;73.70;;;;;;5013804;28;20453;-74
2022/06/19 07:57:07;;;;;;;18.90;17.10;;;32.90;72.60;;;;;;5010367;28;20511;-74
2022/06/19 07:59:33;;;;;;;17.07;15.90;;;33.30;72.10;;;;;;5011920;28;20446;-74
2022/06/19 08:02:00;;;;;;;18.30;16.67;;;33.10;72.80;;;;;;5012776;28;20469;-74
2022/06/19 08:04:27;;;;;;;18.43;16.83;;;33.10;73.10;;;;;;5012616;28;20484;-74
2022/06/19 08:06:54;;;;;;;18.30;16.67;;;33.20;72.90;;;;;;5012596;28;20962;-77
2022/06/19 08:09:22;;;;;;;18.20;16.70;;;33.50;73.80;;;;;;5012909;28;20523;-77
2022/06/19 08:11:48;;;;;;;18.10;16.60;;;33.60;72.50;;;;;;5013194;28;20454;-77
2022/06/19 08:14:15;;;;;;;17.60;16.00;;;33.40;73.00;;;;;;5012745;28;20450;-75
2022/06/19 08:16:42;;;;;;;17.30;16.00;;;33.40;73.80;;;;;;5012362;28;20857;-75
2022/06/19 08:19:09;;;;;;;18.87;17.10;;;33.80;72.00;;;;;;5012447;28;20476;-78
2022/06/19 08:21:35;;;;;;;17.63;16.60;;;33.60;72.40;;;;;;5012735;28;20458;-77
2022/06/19 08:24:02;;;;;;;17.90;16.60;;;33.80;72.50;;;;;;5012824;28;20454;-76
2022/06/19 08:26:31;;;;;;;20.57;17.17;;;33.70;73.10;;;;;;5012202;28;20959;-77
2022/06/19 08:29:00;;;;;;;20.03;17.70;;;33.80;73.10;;;;;;5012116;28;20556;-77
2022/06/19 08:31:27;;;;;;;19.07;17.37;;;33.90;73.20;;;;;;5012034;28;20920;-77
2022/06/19 08:33:54;;;;;;;18.27;16.70;;;34.40;71.80;;;;;;5011954;28;21025;-77
2022/06/19 08:36:21;;;;;;;19.60;17.53;;;34.50;71.90;;;;;;5012341;28;20455;-78
2022/06/19 08:38:52;;;;;;;19.73;17.93;;;35.00;70.50;;;;;;5012555;28;20438;-77
2022/06/19 08:41:39;;;;;;;18.73;17.10;;;34.80;70.80;;;;;;5012370;28;20824;-77
2022/06/19 08:44:25;;;;;;;19.17;17.37;;;35.00;70.10;;;;;;5012238;28;20536;-77
2022/06/19 08:47:03;;;;;;;21.10;18.97;;;35.00;69.50;;;;;;5010462;28;20461;-75
2022/06/19 08:49:43;;;;;;;20.23;18.53;;;35.00;69.40;;;;;;5011895;28;20489;-76
2022/06/19 08:52:21;;;;;;;20.80;18.67;;;35.60;68.20;;;;;;5011677;28;20472;-75
2022/06/19 08:54:59;;;;;;;20.63;18.50;;;35.60;68.20;;;;;;5012141;28;20464;-75
2022/06/19 08:57:35;;;;;;;19.67;18.27;;;35.90;67.80;;;;;;5011827;28;20814;-75
2022/06/19 09:00:09;;;;;;;21.83;20.03;;;36.50;66.10;;;;;;5010244;28;20449;-75
2022/06/19 09:02:48;;;;;;;20.40;18.57;;;36.70;65.20;;;;;;5012468;28;20450;-75
2022/06/19 09:05:40;;;;;;;19.73;18.20;;;37.00;64.40;;;;;;5012027;28;20454;-78
2022/06/19 09:08:48;;;;;;;20.97;19.20;;;37.10;62.90;;;;;;5011932;28;20560;-78
2022/06/19 09:11:33;;;;;;;21.53;20.10;;;37.40;61.90;;;;;;5010473;28;20457;-76
2022/06/19 09:14:16;;;;;;;22.27;20.70;;;37.70;59.80;;;;;;5011448;28;20450;-76
2022/06/19 09:16:54;;;;;;;21.30;19.80;;;38.30;53.80;;;;;;5011459;28;20450;-78
2022/06/19 09:19:32;;;;;;;22.67;20.93;;;38.90;48.20;;;;;;5011552;28;20954;-75
2022/06/19 09:22:09;;;;;;;23.47;21.50;;;39.80;46.90;;;;;;5011394;28;20454;-76
2022/06/19 09:24:51;;;;;;;22.83;21.23;;;40.20;43.50;;;;;;5011587;28;20543;-75
2022/06/19 09:27:21;;;;;;;23.23;21.80;;;40.10;40.30;;;;;;5011494;28;20450;-76
2022/06/19 09:29:55;;;;;;;24.00;22.13;;;40.80;39.60;;;;;;5011126;28;20489;-77
2022/06/19 09:32:30;;;;;;;23.97;21.93;;;41.50;37.90;;;;;;5011098;28;21108;-77
2022/06/19 09:35:01;;;;;;;24.67;22.83;;;41.60;36.00;;;;;;5011023;28;20953;-77
2022/06/19 09:37:35;;;;;;;23.87;22.10;;;41.80;35.50;;;;;;5011074;28;20456;-77
2022/06/19 09:40:07;;;;;;;22.97;21.23;;;42.20;34.90;;;;;;5011079;28;20484;-76
2022/06/19 09:42:40;;;;;;;22.60;20.80;;;42.60;34.20;;;;;;5011287;28;20456;-76
2022/06/19 09:45:14;;;;;;;23.20;21.57;;;41.90;33.60;;;;;;5010317;28;20452;-76
2022/06/19 09:47:46;;;;;;;23.07;21.07;;;41.80;32.70;;;;;;5010939;28;20458;-75
2022/06/19 09:50:20;;;;;;;21.93;20.33;;;41.50;32.90;;;;;;5010788;28;20485;-76
2022/06/19 09:52:52;;;;;;;21.50;20.00;;;41.60;32.90;;;;;;5010999;28;20452;-76
2022/06/19 09:55:24;;;;;;;20.70;19.40;;;41.90;31.30;;;;;;5011086;28;20477;-75
2022/06/19 09:57:55;;;;;;;22.87;21.17;;;42.60;31.20;;;;;;5010844;28;20829;-75
2022/06/19 10:00:28;;;;;;;21.13;19.47;;;43.30;30.20;;;;;;5009111;28;20453;-75
2022/06/19 10:02:59;;;;;;;20.30;19.00;;;42.80;29.30;;;;;;5010655;28;20457;-75
2022/06/19 10:05:34;;;;;;;20.50;19.20;;;42.70;29.80;;;;;;5010653;28;20449;-75
2022/06/19 10:08:04;;;;;;;21.93;20.33;;;42.40;29.50;;;;;;5010555;28;20572;-75
2022/06/19 10:10:36;;;;;;;21.37;19.90;;;42.40;30.00;;;;;;5010752;28;20468;-76
2022/06/19 10:13:13;;;;;;;21.33;19.50;;;42.70;29.70;;;;;;5010699;28;20453;-76
2022/06/19 10:15:43;;;;;;;20.20;19.10;;;42.80;29.10;;;;;;5010336;28;20507;-76
2022/06/19 10:18:16;;;;;;;21.87;20.37;;;42.20;29.50;;;;;;5010557;28;20507;-76
2022/06/19 10:20:50;;;;;;;19.87;18.47;;;42.10;29.60;;;;;;5010854;28;20464;-76
2022/06/19 10:23:25;;;;;;;22.57;21.03;;;42.60;29.70;;;;;;5010915;28;20459;-76
2022/06/19 10:26:12;;;;;;;21.50;20.10;;;42.60;30.00;;;;;;5010880;28;20831;-76
2022/06/19 10:28:59;;;;;;;23.27;21.63;;;42.70;29.70;;;;;;5010646;28;20489;-76
2022/06/19 10:31:38;;;;;;;22.43;20.90;;;43.10;29.50;;;;;;5010233;28;21106;-75
2022/06/19 10:34:16;;;;;;;23.40;21.60;;;43.00;29.00;;;;;;5010949;28;20456;-75
2022/06/19 10:36:51;;;;;;;21.60;20.33;;;42.80;29.90;;;;;;5010528;28;20975;-76
2022/06/19 10:39:35;;;;;;;21.90;20.27;;;43.00;29.70;;;;;;5010791;28;20448;-76
2022/06/19 10:42:12;;;;;;;20.33;19.00;;;43.00;29.10;;;;;;5010684;28;20453;-76
2022/06/19 10:44:57;;;;;;;21.17;20.07;;;42.80;28.90;;;;;;5010487;28;20872;-76
2022/06/19 10:47:40;;;;;;;20.77;19.37;;;42.60;29.10;;;;;;5010501;28;20476;-76
2022/06/19 10:50:16;;;;;;;21.63;20.03;;;42.60;28.50;;;;;;5010617;28;20560;-76
2022/06/19 10:52:53;;;;;;;20.97;19.67;;;42.70;28.60;;;;;;5010444;28;20604;-76
2022/06/19 10:55:31;;;;;;;23.20;21.53;;;42.30;28.90;;;;;;5011388;28;20475;-75
2022/06/19 10:58:09;;;;;;;20.47;19.00;;;42.50;29.00;;;;;;5014579;28;20452;-75
2022/06/19 11:00:36;;;;;;;21.57;19.60;;;43.10;28.80;;;;;;5014757;28;20449;-75
2022/06/19 11:06:06;;;;;;;20.70;19.37;;;43.10;28.20;;;;;;5014297;28;20701;-75
2022/06/19 11:08:35;;;;;;;20.67;19.33;;;42.80;28.20;;;;;;5014341;28;20456;-76
2022/06/19 11:11:03;;;;;;;22.40;20.67;;;42.90;28.20;;;;;;5014288;28;20503;-76
2022/06/19 11:13:56;;;;;;;19.60;17.77;;;42.90;27.90;;;;;;5014032;28;20453;-77
2022/06/19 11:16:23;;;;;;;21.37;19.77;;;42.30;27.90;;;;;;5014169;28;20461;-76
2022/06/19 11:18:53;;;;;;;20.40;19.07;;;42.00;27.50;;;;;;5014362;28;20957;-77
2022/06/19 11:21:23;;;;;;;22.70;21.00;;;41.90;28.10;;;;;;5014219;28;20868;-77
2022/06/19 11:23:56;;;;;;;21.40;19.80;;;41.70;28.20;;;;;;5014406;28;20460;-76
2022/06/19 11:26:26;;;;;;;20.30;19.10;;;41.90;28.20;;;;;;5014187;28;20453;-77
2022/06/19 11:28:57;;;;;;;22.10;20.60;;;42.00;28.20;;;;;;5013856;28;20515;-77
2022/06/19 11:31:27;;;;;;;21.47;19.97;;;41.90;28.30;;;;;;5013523;28;20480;-76
2022/06/19 11:33:58;;;;;;;20.33;19.13;;;42.60;28.00;;;;;;5013853;28;20926;-77
2022/06/19 11:36:29;;;;;;;21.90;20.30;;;43.10;27.90;;;;;;5013943;28;20512;-77
2022/06/19 11:38:56;;;;;;;20.10;19.00;;;42.80;27.70;;;;;;5013719;28;20449;-77
2022/06/19 11:41:32;;;;;;;21.50;19.80;;;42.50;27.70;;;;;;5013597;28;20449;-76
2022/06/19 11:44:08;;;;;;;19.70;18.40;;;42.10;27.80;;;;;;5013572;28;20457;-76
2022/06/19 11:46:47;;;;;;;21.80;20.30;;;41.70;28.10;;;;;;5013800;28;20448;-77
2022/06/19 11:49:25;;;;;;;19.43;18.10;;;41.50;28.60;;;;;;5013197;28;20484;-77
2022/06/19 11:51:53;;;;;;;20.80;19.60;;;42.00;28.10;;;;;;5013666;28;20496;-76
2022/06/19 11:54:26;;;;;;;22.50;20.87;;;42.40;27.60;;;;;;5013746;28;20449;-77
2022/06/19 11:56:54;;;;;;;21.83;19.90;;;42.60;27.80;;;;;;5013433;28;20449;-76
2022/06/19 11:59:27;;;;;;;21.43;20.20;;;42.10;27.60;;;;;;5013575;28;20456;-75
2022/06/19 12:01:54;;;;;;;20.20;18.50;;;42.60;27.80;;;;;;5013290;28;20511;-76
2022/06/19 12:04:29;;;;;;;22.77;21.10;;;42.80;27.70;;;;;;5011857;28;20449;-76
2022/06/19 12:07:00;;;;;;;22.60;20.97;;;42.40;27.80;;;;;;5012548;28;20452;-77
2022/06/19 12:09:37;;;;;;;21.23;19.63;;;42.40;28.20;;;;;;5012889;28;21002;-76
2022/06/19 12:12:08;;;;;;;22.20;20.80;;;43.30;27.30;;;;;;5013547;28;20452;-78
2022/06/19 12:14:51;;;;;;;22.30;20.40;;;43.30;27.10;;;;;;5012186;28;20540;-77
2022/06/19 12:17:20;;;;;;;21.70;20.20;;;43.80;27.10;;;;;;5011321;28;20445;-77
2022/06/19 12:19:55;;;;;;;22.63;21.33;;;43.50;27.40;;;;;;5009694;28;20437;-78
2022/06/19 12:22:30;;;;;;;21.63;20.43;;;44.20;27.10;;;;;;5011850;28;20499;-77
2022/06/19 12:25:03;;;;;;;21.63;20.27;;;44.50;26.80;;;;;;5011959;28;20440;-77
2022/06/19 12:27:36;;;;;;;22.23;20.70;;;45.00;26.80;;;;;;5010280;28;20203;-77
2022/06/19 12:30:05;;;;;;;22.63;21.27;;;44.50;26.50;;;;;;5013003;28;20199;-77
2022/06/19 12:32:37;;;;;;;22.40;20.97;;;44.00;26.70;;;;;;5012749;28;20508;-77
2022/06/19 12:35:13;;;;;;;21.73;20.23;;;44.00;26.20;;;;;;5012844;28;20951;-77
2022/06/19 12:37:39;;;;;;;22.10;20.60;;;44.00;27.20;;;;;;5012140;28;20459;-77
2022/06/19 12:40:14;;;;;;;23.00;21.40;;;44.40;26.80;;;;;;5012782;28;21002;-77
2022/06/19 12:42:50;;;;;;;22.97;21.10;;;44.90;26.20;;;;;;5012825;28;20959;-77
2022/06/19 12:45:30;;;;;;;22.77;21.30;;;44.60;26.00;;;;;;5012817;28;20601;-77
2022/06/19 12:48:05;;;;;;;20.83;19.30;;;43.50;27.00;;;;;;5012685;28;20453;-77
2022/06/19 12:50:46;;;;;;;21.87;20.60;;;43.30;27.20;;;;;;5012707;28;20451;-76
2022/06/19 12:53:47;;;;;;;22.10;20.10;;;43.30;27.40;;;;;;5012657;28;20533;-76
2022/06/19 12:56:20;;;;;;;22.10;20.60;;;43.70;26.90;;;;;;5012461;28;20449;-75
2022/06/19 12:59:13;;;;;;;21.87;20.20;;;42.90;27.00;;;;;;5012545;28;20460;-76
2022/06/19 13:01:47;;;;;;;20.63;19.13;;;42.80;27.10;;;;;;5005824;28;20845;-76
2022/06/19 13:04:27;;;;;;;21.30;19.70;;;42.90;27.10;;;;;;5012511;28;20460;-75
2022/06/19 13:07:13;;;;;;;22.57;21.10;;;42.90;27.10;;;;;;5012311;28;20812;-76
2022/06/19 13:10:00;;;;;;;21.60;20.17;;;43.30;27.00;;;;;;5012300;28;20860;-76
2022/06/19 13:12:40;;;;;;;20.77;19.37;;;43.30;27.20;;;;;;5012293;28;20460;-78
2022/06/19 13:15:27;;;;;;;20.83;19.53;;;43.00;27.10;;;;;;5012366;28;20453;-76
2022/06/19 13:18:00;;;;;;;21.57;20.30;;;42.90;27.40;;;;;;5012337;28;20457;-77
2022/06/19 13:20:37;;;;;;;21.73;19.77;;;43.10;27.00;;;;;;5011577;28;20481;-76
2022/06/19 13:23:18;;;;;;;20.43;19.23;;;43.40;26.90;;;;;;5012406;28;20503;-76
2022/06/19 13:25:53;;;;;;;22.50;20.37;;;42.90;26.20;;;;;;5012700;28;20476;-76
2022/06/19 13:28:32;;;;;;;22.43;20.57;;;42.70;26.80;;;;;;5012275;28;20448;-76
2022/06/19 13:31:06;;;;;;;21.63;20.00;;;42.70;27.00;;;;;;5011817;28;20472;-76
2022/06/19 13:33:50;;;;;;;20.67;19.57;;;43.30;26.60;;;;;;5011946;28;20480;-76
2022/06/19 13:36:22;;;;;;;21.70;20.23;;;43.00;26.70;;;;;;5011894;28;20472;-76
2022/06/19 13:39:02;;;;;;;20.87;19.40;;;43.30;26.70;;;;;;5011688;28;20974;-76
2022/06/19 13:41:38;;;;;;;21.57;20.10;;;43.50;27.00;;;;;;5011137;28;20484;-76
2022/06/19 13:44:22;;;;;;;21.90;19.90;;;43.60;26.40;;;;;;5011287;28;20461;-76
2022/06/19 13:46:54;;;;;;;20.80;19.27;;;43.00;26.60;;;;;;5011328;28;20461;-76
2022/06/19 13:49:28;;;;;;;21.17;19.47;;;42.10;27.10;;;;;;5011183;28;20452;-76
2022/06/19 13:52:07;;;;;;;23.73;21.63;;;41.90;27.40;;;;;;5011101;28;20453;-75
2022/06/19 13:54:42;;;;;;;21.00;19.30;;;41.80;27.30;;;;;;5011281;28;20449;-75
2022/06/19 13:57:14;;;;;;;20.33;18.93;;;42.00;27.40;;;;;;5010892;28;20825;-75
2022/06/19 13:59:57;;;;;;;19.70;18.27;;;42.20;26.90;;;;;;5010185;28;20897;-75
2022/06/19 14:02:42;;;;;;;20.10;18.73;;;42.90;26.90;;;;;;5008098;28;20468;-75
2022/06/19 14:05:18;;;;;;;21.10;19.40;;;43.10;26.30;;;;;;5008593;28;20476;-76
2022/06/19 14:08:10;;;;;;;21.47;19.73;;;43.50;26.60;;;;;;5008015;28;20446;-76
2022/06/19 14:10:47;;;;;;;20.20;18.67;;;43.30;26.60;;;;;;5007011;28;20790;-75
2022/06/19 14:13:28;;;;;;;21.47;19.97;;;43.10;26.50;;;;;;5009179;28;20448;-73
2022/06/19 14:16:05;;;;;;;21.93;20.10;;;43.60;26.40;;;;;;5010490;28;20484;-73
2022/06/19 14:18:40;;;;;;;21.40;19.80;;;43.30;26.10;;;;;;5010813;28;20456;-73
2022/06/19 14:21:26;;;;;;;22.63;20.97;;;43.60;26.50;;;;;;5010747;28;20522;-72
2022/06/19 14:24:00;;;;;;;20.57;19.27;;;43.50;26.40;;;;;;5010685;28;20527;-72
2022/06/19 14:26:42;;;;;;;20.53;18.93;;;43.00;26.80;;;;;;5010533;28;20506;-72
2022/06/19 14:29:42;;;;;;;20.87;19.07;;;42.20;27.50;;;;;;5010355;28;20458;-72
2022/06/19 14:32:14;;;;;;;20.60;19.10;;;42.00;27.80;;;;;;5010180;28;20531;-72
2022/06/19 14:35:25;;;;;;;20.03;18.33;;;41.60;28.10;;;;;;5010142;28;20449;-73
2022/06/19 14:38:20;;;;;;;21.07;19.37;;;41.90;28.20;;;;;;4911547;29;20937;-72
2022/06/19 14:41:03;;;;;;;20.90;19.20;;;41.70;28.00;;;;;;4984070;28;20854;-72
2022/06/19 14:43:41;;;;;;;20.17;18.90;;;41.10;27.80;;;;;;5010263;28;20504;-72
2022/06/19 14:46:36;;;;;;;21.43;19.90;;;40.70;28.50;;;;;;5010179;28;20511;-73
2022/06/19 14:49:36;;;;;;;21.23;19.53;;;40.90;28.50;;;;;;5010390;28;20450;-72
2022/06/19 14:52:14;;;;;;;19.77;18.57;;;40.80;28.50;;;;;;5010409;28;20456;-72
2022/06/19 14:55:01;;;;;;;19.53;18.23;;;41.30;28.60;;;;;;5010213;28;20863;-72
2022/06/19 14:57:32;;;;;;;20.30;18.63;;;41.40;28.30;;;;;;5010193;28;20454;-72
2022/06/19 15:00:02;;;;;;;19.97;18.40;;;41.70;27.80;;;;;;5010026;28;20493;-72
2022/06/19 15:02:36;;;;;;;21.93;20.00;;;41.40;27.80;;;;;;5010144;28;20880;-72
2022/06/19 15:05:09;;;;;;;20.93;18.90;;;41.40;28.20;;;;;;5010244;28;20461;-72
2022/06/19 15:07:42;;;;;;;20.17;18.63;;;40.90;28.90;;;;;;5010338;28;20453;-72
2022/06/19 15:10:20;;;;;;;20.93;19.47;;;40.70;28.80;;;;;;4986280;28;20474;-72
2022/06/19 15:13:01;;;;;;;18.60;17.30;;;40.50;29.00;;;;;;4983969;28;20836;-73
2022/06/19 15:15:36;;;;;;;18.93;17.63;;;40.20;29.30;;;;;;4990365;28;20505;-73
2022/06/19 15:18:13;;;;;;;21.33;19.80;;;40.20;29.80;;;;;;4999009;28;20468;-73
2022/06/19 15:20:44;;;;;;;20.37;18.97;;;39.70;30.00;;;;;;4998020;28;20493;-73
2022/06/19 15:23:45;;;;;;;21.47;19.50;;;39.40;30.00;;;;;;4995619;28;20814;-72
2022/06/19 15:26:43;;;;;;;21.83;20.00;;;38.90;30.10;;;;;;4991370;28;20716;-72
2022/06/19 15:29:34;;;;;;;19.97;18.57;;;38.20;30.90;;;;;;4995336;28;20457;-72
2022/06/19 15:32:39;;;;;;;17.03;15.87;;;37.90;31.20;;;;;;4998055;28;20483;-72
2022/06/19 15:35:53;;;;;;;17.90;16.60;;;37.80;31.40;;;;;;4997415;28;20438;-73
2022/06/19 15:38:43;;;;;;;19.53;18.33;;;37.50;31.70;;;;;;4961337;28;20457;-73
2022/06/19 15:41:46;;;;;;;19.03;17.43;;;37.40;32.20;;;;;;4999310;28;20577;-73
2022/06/19 15:44:52;;;;;;;20.20;18.43;;;37.40;31.80;;;;;;4973359;28;20443;-72
2022/06/19 15:47:19;;;;;;;20.00;18.40;;;37.40;31.40;;;;;;5001006;28;20840;-73
2022/06/19 15:49:50;;;;;;;20.17;18.30;;;37.30;31.30;;;;;;5000831;28;20533;-72
2022/06/19 15:52:19;;;;;;;18.13;16.60;;;37.30;31.50;;;;;;5002237;28;20442;-72